Time;durP1;ratioP1;P1;durP2;ratioP2;P2;SDS_P1;SDS_P2;PMS_P1;PMS_P2;Temp;Humidity;BMP_temperature;BMP_pressure;BME280_temperature;BME280_humidity;BME280_pressure;Samples;Min_cycle;Max_cycle;Signal;HPM_P1;HPM_P2
2022/09/07 00:01:43;;;;;;;5.40;4.93;;;;;;;-144.22;100.00;60274.75;6137109;29;20245;-44
2022/09/07 00:04:45;;;;;;;7.00;5.43;;;;;;;-144.22;100.00;60274.75;6135953;28;20714;-44
2022/09/07 00:07:47;;;;;;;5.10;4.60;;;;;;;-144.22;100.00;60274.75;6136316;29;20249;-44
2022/09/07 00:11:01;;;;;;;5.80;5.30;;;;;;;-144.22;100.00;60274.75;6136044;29;20744;-44
2022/09/07 00:14:04;;;;;;;5.10;4.70;;;;;;;-144.22;100.00;60274.75;6137012;29;20760;-44
2022/09/07 00:17:06;;;;;;;5.47;5.03;;;;;;;-144.22;100.00;60274.75;6135252;29;20247;-43
2022/09/07 00:20:10;;;;;;;5.20;4.77;;;;;;;-144.22;100.00;60274.75;6136388;29;20288;-43
2022/09/07 00:23:12;;;;;;;5.10;4.70;;;;;;;-144.22;100.00;60274.75;6135726;29;20235;-43
2022/09/07 00:26:23;;;;;;;5.60;5.10;;;;;;;-144.22;100.00;60274.75;6135414;28;20241;-43
2022/09/07 00:29:25;;;;;;;5.40;4.90;;;;;;;-144.22;100.00;60274.75;6136826;29;20227;-44
2022/09/07 00:32:27;;;;;;;5.43;4.93;;;;;;;-144.22;100.00;60274.75;6135762;29;20261;-43
2022/09/07 00:35:29;;;;;;;5.67;5.17;;;;;;;-144.22;100.00;60274.75;6135404;29;20753;-43
2022/09/07 00:38:31;;;;;;;5.73;5.17;;;;;;;-144.22;100.00;60274.75;6135380;29;20235;-43
2022/09/07 00:41:33;;;;;;;5.80;4.83;;;;;;;-144.22;100.00;60274.75;6136046;29;20356;-45
2022/09/07 00:45:18;;;;;;;5.30;4.80;;;;;;;-144.22;100.00;60274.75;6135253;29;20264;-44
2022/09/07 00:48:24;;;;;;;7.73;4.80;;;;;;;-144.22;100.00;60274.75;6134915;29;22300;-43
2022/09/07 00:51:56;;;;;;;6.80;5.40;;;;;;;-144.22;100.00;60274.75;6134773;28;20242;-43
2022/09/07 00:55:02;;;;;;;6.60;5.40;;;;;;;-144.22;100.00;60274.75;6135297;29;20239;-44
2022/09/07 00:58:06;;;;;;;4.40;4.00;;;;;;;-144.22;100.00;60274.75;6134909;29;20604;-44
2022/09/07 01:05:33;;;;;;;6.20;4.97;;;;;;;-144.22;100.00;60274.75;6117043;28;20243;-43
2022/09/07 01:08:36;;;;;;;5.40;4.90;;;;;;;-144.22;100.00;60274.75;6120040;29;20237;-43
2022/09/07 01:11:39;;;;;;;5.30;4.87;;;;;;;-144.22;100.00;60274.75;6134662;29;20631;-43
2022/09/07 01:14:47;;;;;;;5.20;4.70;;;;;;;-144.22;100.00;60274.75;6133981;29;20265;-43
2022/09/07 01:18:25;;;;;;;5.63;5.13;;;;;;;-144.22;100.00;60274.75;6134486;29;20310;-43
2022/09/07 01:21:51;;;;;;;5.47;4.97;;;;;;;-144.22;100.00;60274.75;6134744;29;20238;-44
2022/09/07 01:25:18;;;;;;;5.43;4.90;;;;;;;-144.22;100.00;60274.75;6133978;29;20749;-43
2022/09/07 01:28:33;;;;;;;5.53;5.03;;;;;;;-144.22;100.00;60274.75;6118389;29;20635;-44
2022/09/07 01:31:54;;;;;;;5.70;5.20;;;;;;;-144.22;100.00;60274.75;6134474;29;20293;-43
2022/09/07 01:35:01;;;;;;;5.80;5.30;;;;;;;-144.22;100.00;60274.75;6134424;29;20313;-43
2022/09/07 01:38:16;;;;;;;5.43;4.93;;;;;;;-144.22;100.00;60274.75;6133343;28;20235;-43
2022/09/07 01:41:42;;;;;;;6.10;5.43;;;;;;;-144.22;100.00;60274.75;6134473;29;20234;-43
2022/09/07 01:44:54;;;;;;;5.97;5.47;;;;;;;-144.22;100.00;60274.75;6134904;29;20242;-43
2022/09/07 01:48:02;;;;;;;5.60;5.10;;;;;;;-144.22;100.00;60274.75;6133054;29;20627;-43
2022/09/07 01:51:04;;;;;;;6.60;5.20;;;;;;;-144.22;100.00;60274.75;6132799;28;20239;-43
2022/09/07 01:54:36;;;;;;;5.37;4.87;;;;;;;-144.22;100.00;60274.75;6132319;28;20320;-43
2022/09/07 01:57:46;;;;;;;6.10;5.60;;;;;;;-144.22;100.00;60274.75;6112330;29;20758;-43
2022/09/07 02:00:59;;;;;;;5.97;5.40;;;;;;;-144.22;100.00;60274.75;6115953;29;20230;-43
2022/09/07 02:04:25;;;;;;;5.83;5.33;;;;;;;-144.22;100.00;60274.75;6133409;28;20405;-43
2022/09/07 02:07:41;;;;;;;5.87;5.10;;;;;;;-144.22;100.00;60274.75;6133339;28;20234;-43
2022/09/07 02:11:07;;;;;;;5.10;4.60;;;;;;;-144.22;100.00;60274.75;6139409;29;20884;-43
2022/09/07 02:14:16;;;;;;;5.93;5.33;;;;;;;-144.22;100.00;60274.75;6115619;29;20262;-44
2022/09/07 02:17:27;;;;;;;6.30;5.70;;;;;;;-144.22;100.00;60274.75;6133798;29;20243;-43
2022/09/07 02:20:35;;;;;;;6.30;4.90;;;;;;;-144.22;100.00;60274.75;6133193;29;20700;-43
2022/09/07 02:23:42;;;;;;;5.37;4.97;;;;;;;-144.22;100.00;60274.75;6132488;29;20271;-43
2022/09/07 02:26:48;;;;;;;5.47;4.97;;;;;;;-144.22;100.00;60274.75;6132295;29;20639;-43
2022/09/07 02:29:51;;;;;;;5.87;5.37;;;;;;;-144.22;100.00;60274.75;6132388;29;20281;-46
2022/09/07 02:32:55;;;;;;;5.67;5.17;;;;;;;-144.22;100.00;60274.75;6133737;29;20257;-43
2022/09/07 02:35:57;;;;;;;7.00;5.57;;;;;;;-144.22;100.00;60274.75;6137926;29;20706;-43
2022/09/07 02:38:59;;;;;;;5.90;5.17;;;;;;;-144.22;100.00;60274.75;6136916;29;20230;-44
2022/09/07 02:42:01;;;;;;;6.63;5.83;;;;;;;-144.22;100.00;60274.75;6138395;29;20230;-43
2022/09/07 02:45:06;;;;;;;6.17;5.27;;;;;;;-144.22;100.00;60274.75;6137316;29;20602;-45
2022/09/07 02:48:50;;;;;;;6.03;5.43;;;;;;;-144.22;100.00;60274.75;6131645;28;20207;-44
2022/09/07 02:52:19;;;;;;;5.23;4.60;;;;;;;-144.22;100.00;60274.75;6104767;29;20230;-43
2022/09/07 02:55:53;;;;;;;6.87;5.77;;;;;;;-144.22;100.00;60274.75;6131780;29;20234;-43
2022/09/07 02:58:58;;;;;;;5.47;5.07;;;;;;;-144.22;100.00;60274.75;6132529;29;20234;-43
2022/09/07 03:02:05;;;;;;;5.73;5.07;;;;;;;-144.22;100.00;60274.75;6132684;29;20749;-43
2022/09/07 03:05:37;;;;;;;6.07;5.47;;;;;;;-144.22;100.00;60274.75;6131834;28;20613;-43
2022/09/07 03:08:45;;;;;;;6.13;4.93;;;;;;;-144.22;100.00;60274.75;6132154;29;20722;-43
2022/09/07 03:11:48;;;;;;;5.80;5.30;;;;;;;-144.22;100.00;60274.75;6132394;29;20648;-43
2022/09/07 03:14:50;;;;;;;5.73;5.23;;;;;;;-144.22;100.00;60274.75;6132524;29;20250;-43
2022/09/07 03:17:53;;;;;;;5.83;5.33;;;;;;;-144.22;100.00;60274.75;6132883;29;20246;-43
2022/09/07 03:20:55;;;;;;;4.87;4.47;;;;;;;-144.22;100.00;60274.75;6132122;29;20765;-43
2022/09/07 03:23:57;;;;;;;5.70;5.20;;;;;;;-144.22;100.00;60274.75;6132369;29;20241;-42
2022/09/07 03:27:00;;;;;;;5.60;4.53;;;;;;;-144.22;100.00;60274.75;6133417;29;20242;-45
2022/09/07 03:30:04;;;;;;;5.90;4.87;;;;;;;-144.22;100.00;60274.75;6132526;29;20797;-43
2022/09/07 03:33:06;;;;;;;5.67;5.07;;;;;;;-144.22;100.00;60274.75;6132563;29;20241;-43
2022/09/07 03:36:08;;;;;;;5.10;4.70;;;;;;;-144.22;100.00;60274.75;6132263;29;20214;-44
2022/09/07 03:39:12;;;;;;;5.13;4.73;;;;;;;-144.22;100.00;60274.75;6133115;29;20701;-44
2022/09/07 03:42:14;;;;;;;5.43;5.03;;;;;;;-144.22;100.00;60274.75;6132941;29;20223;-44
2022/09/07 03:45:17;;;;;;;7.50;5.77;;;;;;;-144.22;100.00;60274.75;6131481;29;20246;-43
2022/09/07 03:48:19;;;;;;;5.00;4.60;;;;;;;-144.22;100.00;60274.75;6131745;29;20234;-43
2022/09/07 03:51:21;;;;;;;5.50;5.00;;;;;;;-144.22;100.00;60274.75;6131730;28;20234;-43
2022/09/07 03:54:23;;;;;;;5.53;5.03;;;;;;;-144.22;100.00;60274.75;6132621;28;20228;-43
2022/09/07 03:57:25;;;;;;;5.23;4.80;;;;;;;-144.22;100.00;60274.75;6131983;29;20234;-43
2022/09/07 04:00:28;;;;;;;5.23;4.77;;;;;;;-144.22;100.00;60274.75;6133989;28;20233;-43
2022/09/07 04:03:30;;;;;;;6.27;5.17;;;;;;;-144.22;100.00;60274.75;6137412;28;20318;-43
2022/09/07 04:06:32;;;;;;;5.30;4.90;;;;;;;-144.22;100.00;60274.75;6136330;29;20237;-43
2022/09/07 04:09:34;;;;;;;5.07;4.67;;;;;;;-144.22;100.00;60274.75;6135966;29;20613;-43
2022/09/07 04:12:36;;;;;;;6.10;5.57;;;;;;;-144.22;100.00;60274.75;6135977;29;20694;-43
2022/09/07 04:15:39;;;;;;;5.37;4.93;;;;;;;-144.22;100.00;60274.75;6136523;29;20717;-43
2022/09/07 04:18:41;;;;;;;5.50;5.00;;;;;;;-144.22;100.00;60274.75;6136502;29;20587;-44
2022/09/07 04:21:45;;;;;;;5.23;4.83;;;;;;;-144.22;100.00;60274.75;6135821;29;20601;-43
2022/09/07 04:24:47;;;;;;;5.50;5.00;;;;;;;-144.22;100.00;60274.75;6135989;29;20517;-43
2022/09/07 04:27:49;;;;;;;10.57;5.37;;;;;;;-144.22;100.00;60274.75;6135066;29;20234;-44
2022/09/07 04:30:51;;;;;;;5.13;4.73;;;;;;;-144.22;100.00;60274.75;6136352;29;20230;-43
2022/09/07 04:33:55;;;;;;;6.13;5.37;;;;;;;-144.22;100.00;60274.75;6135767;29;20358;-43
2022/09/07 04:36:57;;;;;;;5.73;5.00;;;;;;;-144.22;100.00;60274.75;6136362;29;20238;-43
2022/09/07 04:39:59;;;;;;;6.10;5.50;;;;;;;-144.22;100.00;60274.75;6135761;29;20238;-44
2022/09/07 04:43:01;;;;;;;5.97;5.07;;;;;;;-144.22;100.00;60274.75;6135063;29;20373;-43
2022/09/07 04:46:05;;;;;;;5.93;5.33;;;;;;;-144.22;100.00;60274.75;6136114;29;20246;-43
2022/09/07 04:49:10;;;;;;;5.60;5.10;;;;;;;-144.22;100.00;60274.75;6135312;29;20631;-43
2022/09/07 04:52:12;;;;;;;6.00;5.17;;;;;;;-144.22;100.00;60274.75;6132185;28;20223;-43
2022/09/07 04:55:15;;;;;;;7.33;4.80;;;;;;;-144.22;100.00;60274.75;6136724;29;20226;-44
2022/09/07 04:58:17;;;;;;;5.40;4.90;;;;;;;-144.22;100.00;60274.75;6133850;29;20234;-45
2022/09/07 05:01:21;;;;;;;5.60;5.10;;;;;;;-144.22;100.00;60274.75;6135114;29;20242;-43
2022/09/07 05:04:24;;;;;;;5.90;5.30;;;;;;;-144.22;100.00;60274.75;6134094;28;20235;-43
2022/09/07 05:07:26;;;;;;;6.37;5.57;;;;;;;-144.22;100.00;60274.75;6133899;28;20270;-42
2022/09/07 05:10:28;;;;;;;6.03;5.20;;;;;;;-144.22;100.00;60274.75;6134238;29;20246;-43
2022/09/07 05:13:30;;;;;;;5.30;4.80;;;;;;;-144.22;100.00;60274.75;6132547;28;20230;-44
2022/09/07 05:16:32;;;;;;;5.60;5.10;;;;;;;-144.22;100.00;60274.75;6135156;29;20230;-43
2022/09/07 05:19:35;;;;;;;6.13;5.53;;;;;;;-144.22;100.00;60274.75;6133276;29;20238;-44
2022/09/07 05:22:39;;;;;;;5.77;5.27;;;;;;;-144.22;100.00;60274.75;6133502;29;20742;-44
2022/09/07 05:25:44;;;;;;;6.40;5.80;;;;;;;-144.22;100.00;60274.75;6133673;29;20251;-43
2022/09/07 05:28:46;;;;;;;6.13;5.63;;;;;;;-144.22;100.00;60274.75;6116445;29;20257;-43
2022/09/07 05:31:48;;;;;;;7.23;6.33;;;;;;;-144.22;100.00;60274.75;6134223;29;20249;-43
2022/09/07 05:34:50;;;;;;;6.90;6.30;;;;;;;-144.22;100.00;60274.75;6133587;29;20230;-44
2022/09/07 05:37:53;;;;;;;6.40;5.80;;;;;;;-144.22;100.00;60274.75;6132906;29;20261;-43
2022/09/07 05:40:56;;;;;;;6.80;6.20;;;;;;;-144.22;100.00;60274.75;6132671;29;20238;-43
2022/09/07 05:43:58;;;;;;;7.17;6.47;;;;;;;-144.22;100.00;60274.75;6132999;29;20270;-43
2022/09/07 05:47:20;;;;;;;7.50;6.80;;;;;;;-144.22;100.00;60274.75;6133144;29;20242;-45
2022/09/07 05:50:22;;;;;;;7.70;7.00;;;;;;;-144.22;100.00;60274.75;6133850;29;20230;-43
2022/09/07 05:53:24;;;;;;;8.33;5.80;;;;;;;-144.22;100.00;60274.75;6133695;29;20237;-44
2022/09/07 05:56:27;;;;;;;6.37;5.67;;;;;;;-144.22;100.00;60274.75;6132918;29;20231;-44
2022/09/07 05:59:29;;;;;;;5.87;5.37;;;;;;;-144.22;100.00;60274.75;6116073;29;20776;-43
2022/09/07 06:02:31;;;;;;;5.50;5.10;;;;;;;-144.22;100.00;60274.75;6132890;29;20719;-44
2022/09/07 06:05:40;;;;;;;5.17;4.77;;;;;;;-144.22;100.00;60274.75;6131727;28;20599;-44
2022/09/07 06:08:51;;;;;;;5.27;4.87;;;;;;;-144.22;100.00;60274.75;6132661;29;20229;-44
2022/09/07 06:11:53;;;;;;;5.63;5.13;;;;;;;-144.22;100.00;60274.75;6131996;29;20226;-44
2022/09/07 06:14:55;;;;;;;5.10;4.70;;;;;;;-144.22;100.00;60274.75;6133273;29;20226;-44
2022/09/07 06:17:57;;;;;;;7.03;6.43;;;;;;;-144.22;100.00;60274.75;6132437;29;20237;-44
2022/09/07 06:21:09;;;;;;;5.70;5.10;;;;;;;-144.22;100.00;60274.75;6124115;29;20690;-43
2022/09/07 06:24:11;;;;;;;5.00;4.60;;;;;;;-144.22;100.00;60274.75;6131749;28;20234;-43
2022/09/07 06:27:13;;;;;;;6.63;6.13;;;;;;;-144.22;100.00;60274.75;6133134;29;20726;-43
2022/09/07 06:30:15;;;;;;;6.00;5.50;;;;;;;-144.22;100.00;60274.75;6132317;29;20214;-43
2022/09/07 06:33:17;;;;;;;6.03;5.07;;;;;;;-144.22;100.00;60274.75;6130970;29;20217;-44
2022/09/07 06:36:26;;;;;;;5.53;5.13;;;;;;;-144.22;100.00;60274.75;6132714;29;20236;-43
2022/09/07 06:39:28;;;;;;;5.57;5.07;;;;;;;-144.22;100.00;60274.75;6131700;29;20721;-45
2022/09/07 06:42:30;;;;;;;4.97;4.57;;;;;;;-144.22;100.00;60274.75;6128441;29;20229;-43
2022/09/07 06:45:33;;;;;;;5.73;5.23;;;;;;;-144.22;100.00;60274.75;6128823;29;20237;-43
2022/09/07 06:48:35;;;;;;;6.23;5.00;;;;;;;-144.22;100.00;60274.75;6113531;29;20862;-43
2022/09/07 06:51:37;;;;;;;6.53;5.93;;;;;;;-144.22;100.00;60274.75;6128977;29;20706;-42
2022/09/07 06:54:39;;;;;;;8.27;7.47;;;;;;;-144.22;100.00;60274.75;6131417;29;20225;-43
2022/09/07 06:58:01;;;;;;;9.20;8.30;;;;;;;-144.22;100.00;60274.75;6129244;29;20311;-42
2022/09/07 07:01:11;;;;;;;9.23;8.40;;;;;;;-144.22;100.00;60274.75;6127462;29;20235;-42
2022/09/07 07:04:13;;;;;;;10.10;8.17;;;;;;;-144.22;100.00;60274.75;6129178;28;20234;-44
2022/09/07 07:07:15;;;;;;;9.20;8.40;;;;;;;-144.22;100.00;60274.75;6131490;29;20698;-43
2022/09/07 07:10:17;;;;;;;8.27;7.47;;;;;;;-144.22;100.00;60274.75;6124607;29;20230;-42
2022/09/07 07:13:26;;;;;;;7.90;7.17;;;;;;;-144.22;100.00;60274.75;6131005;29;20716;-43
2022/09/07 07:16:28;;;;;;;7.30;6.70;;;;;;;-144.22;100.00;60274.75;6131681;29;20249;-43
2022/09/07 07:19:30;;;;;;;7.73;7.03;;;;;;;-144.22;100.00;60274.75;6130696;29;20604;-44
2022/09/07 07:22:32;;;;;;;8.10;7.33;;;;;;;-144.22;100.00;60274.75;6130738;29;20308;-43
2022/09/07 07:25:49;;;;;;;8.27;7.47;;;;;;;-144.22;100.00;60274.75;6128267;29;20537;-43
2022/09/07 07:28:54;;;;;;;7.13;6.53;;;;;;;-144.22;100.00;60274.75;6130773;28;20238;-43
2022/09/07 07:31:59;;;;;;;9.43;8.53;;;;;;;-144.22;100.00;60274.75;6131971;29;20694;-43
2022/09/07 07:35:02;;;;;;;7.23;6.63;;;;;;;-144.22;100.00;60274.75;6131035;28;20229;-43
2022/09/07 07:38:04;;;;;;;5.87;5.37;;;;;;;-144.22;100.00;60274.75;6135872;28;20242;-43
2022/09/07 07:41:30;;;;;;;8.70;7.93;;;;;;;-144.22;100.00;60274.75;6133024;28;20743;-42
2022/09/07 07:44:52;;;;;;;6.27;5.73;;;;;;;-144.22;100.00;60274.75;6130534;29;20273;-43
2022/09/07 07:48:15;;;;;;;5.13;4.63;;;;;;;-144.22;100.00;60274.75;6131009;29;20222;-43
2022/09/07 07:51:19;;;;;;;5.07;4.67;;;;;;;-144.22;100.00;60274.75;6135715;29;20738;-43
2022/09/07 07:54:21;;;;;;;7.63;6.83;;;;;;;-144.22;100.00;60274.75;6135088;29;20232;-43
2022/09/07 07:57:23;;;;;;;9.10;7.23;;;;;;;-144.22;100.00;60274.75;6117790;29;20222;-42
2022/09/07 08:00:25;;;;;;;6.30;5.80;;;;;;;-144.22;100.00;60274.75;6131601;29;20238;-43
2022/09/07 08:03:48;;;;;;;5.70;5.20;;;;;;;-144.22;100.00;60274.75;6133370;29;20724;-43
2022/09/07 08:06:51;;;;;;;6.20;5.10;;;;;;;-144.22;100.00;60274.75;6135978;28;20242;-44
2022/09/07 08:09:53;;;;;;;4.17;3.77;;;;;;;-144.22;100.00;60274.75;6133176;29;20256;-43
2022/09/07 08:12:55;;;;;;;4.10;3.70;;;;;;;-144.22;100.00;60274.75;6118059;29;20241;-44
2022/09/07 08:15:58;;;;;;;4.80;4.33;;;;;;;-144.22;100.00;60274.75;6129949;29;20309;-43
2022/09/07 08:19:01;;;;;;;4.00;3.63;;;;;;;-144.22;100.00;60274.75;6134205;29;20723;-43
2022/09/07 08:22:03;;;;;;;6.20;4.40;;;;;;;-144.22;100.00;60274.75;6134386;29;20242;-44
2022/09/07 08:25:06;;;;;;;7.47;6.77;;;;;;;-144.22;100.00;60274.75;6104335;29;20724;-43
2022/09/07 08:28:08;;;;;;;4.60;4.20;;;;;;;23.96;100.00;60274.75;6135723;29;20268;-43
2022/09/07 08:31:13;;;;;;;4.83;4.03;;;;;;;-144.22;100.00;60274.75;6134421;29;20257;-43
2022/09/07 08:34:16;;;;;;;5.27;4.77;;;;;;;-144.22;100.00;60274.75;6117899;29;20278;-43
2022/09/07 08:37:18;;;;;;;5.97;5.47;;;;;;;-144.22;100.00;60274.75;6139612;29;20253;-44
2022/09/07 08:40:20;;;;;;;5.67;5.07;;;;;;;-144.22;100.00;60274.75;6139190;29;20596;-43
2022/09/07 08:43:47;;;;;;;7.63;6.80;;;;;;;-144.22;100.00;60274.75;6140841;29;20370;-44
2022/09/07 08:46:53;;;;;;;6.97;5.50;;;;;;;-144.22;100.00;60274.75;6133181;28;20616;-43
2022/09/07 08:50:21;;;;;;;5.15;4.65;;;;;;;-144.22;100.00;60274.75;6112742;29;20242;-43
2022/09/07 08:53:24;;;;;;;5.40;4.82;;;;;;;25.64;100.00;60274.75;6127867;29;20321;-43
2022/09/07 08:56:30;;;;;;;4.90;4.40;;;;;;;-144.22;100.00;60274.75;6134104;29;20624;-43
2022/09/07 09:00:10;;;;;;;6.63;5.10;;;;;;;24.99;100.00;81161.03;6133445;29;20239;-43
2022/09/07 09:03:29;;;;;;;6.35;5.75;;;;;;;-144.22;100.00;60274.75;6061423;29;20276;-43
2022/09/07 09:06:58;;;;;;;4.80;4.40;;;;;;;42.51;100.00;60274.75;6084081;29;20319;-44
2022/09/07 09:10:35;;;;;;;4.55;3.85;;;;;;;32.13;100.00;60274.75;6080845;29;20353;-44
2022/09/07 09:13:51;;;;;;;4.03;3.70;;;;;;;-144.22;100.00;60274.75;6087177;29;20232;-44
2022/09/07 09:17:15;;;;;;;5.55;4.78;;;;;;;-144.22;100.00;60274.75;6078636;29;20749;-44
2022/09/07 09:20:17;;;;;;;4.43;4.13;;;;;;;-144.22;100.00;60274.75;6073024;29;20668;-44
2022/09/07 09:23:25;;;;;;;4.82;3.97;;;;;;;42.51;100.00;60274.75;6077978;29;20238;-45
2022/09/07 09:26:32;;;;;;;4.18;3.88;;;;;;;-144.22;100.00;60274.75;6079036;29;20712;-43
2022/09/07 09:29:35;;;;;;;5.50;5.00;;;;;;;-144.22;100.00;60274.75;6084148;29;20315;-45
2022/09/07 09:32:40;;;;;;;6.07;4.13;;;;;;;-144.22;100.00;60274.75;6083202;29;20331;-44
2022/09/07 09:35:44;;;;;;;5.35;4.93;;;;;;;-144.22;100.00;60274.75;6083996;29;20232;-44
2022/09/07 09:38:47;;;;;;;5.70;5.07;;;;;;;-144.22;100.00;60274.75;6112485;28;20242;-43
2022/09/07 09:41:49;;;;;;;6.70;4.65;;;;;;;-144.22;100.00;60274.75;6134485;28;20277;-45
2022/09/07 09:44:52;;;;;;;4.13;3.75;;;;;;;-144.22;100.00;60274.75;6134914;28;20304;-43
2022/09/07 09:47:56;;;;;;;6.07;4.18;;;;;;;-144.22;100.00;60274.75;6133519;28;20340;-43
2022/09/07 09:51:01;;;;;;;4.50;4.10;;;;;;;-144.22;100.00;60274.75;6134115;28;20261;-44
2022/09/07 09:54:28;;;;;;;6.28;4.30;;;;;;;-144.22;100.00;60274.75;6132138;28;20337;-44
2022/09/07 09:57:59;;;;;;;4.18;3.80;;;;;;;-144.22;100.00;60274.75;6133619;28;20789;-44
2022/09/07 10:01:25;;;;;;;4.55;4.15;;;;;;;-144.22;100.00;60274.75;6133227;28;20237;-44
2022/09/07 10:04:34;;;;;;;4.80;4.40;;;;;;;-144.22;100.00;60274.75;6128539;28;20470;-45
2022/09/07 10:07:36;;;;;;;5.93;5.00;;;;;;;29.53;100.00;60274.75;6132703;28;20238;-44
2022/09/07 10:10:49;;;;;;;4.38;3.97;;;;;;;-144.22;100.00;60274.75;6131953;29;20238;-44
2022/09/07 10:13:56;;;;;;;4.25;3.85;;;;;;;29.53;100.00;60274.75;6132228;29;20354;-44
2022/09/07 10:17:00;;;;;;;4.68;4.22;;;;;;;-144.22;100.00;60274.75;6131445;29;20234;-44
2022/09/07 10:20:14;;;;;;;4.03;3.65;;;;;;;29.53;100.00;60274.75;6133504;29;20377;-44
2022/09/07 10:23:22;;;;;;;4.38;3.85;;;;;;;-144.22;100.00;60274.75;6137272;29;20238;-44
2022/09/07 10:26:31;;;;;;;4.32;3.97;;;;;;;42.51;100.00;60274.75;6132682;29;20362;-46
2022/09/07 10:29:37;;;;;;;5.28;4.00;;;;;;;-144.22;100.00;60274.75;6132829;29;20238;-44
2022/09/07 10:32:55;;;;;;;4.40;4.00;;;;;;;-144.22;100.00;60274.75;6132552;29;20253;-44
2022/09/07 10:36:18;;;;;;;4.70;4.30;;;;;;;29.34;100.00;60274.75;6132632;29;20235;-45
2022/09/07 10:39:28;;;;;;;5.47;4.10;;;;;;;-144.22;100.00;60274.75;6131491;29;20322;-45
2022/09/07 10:42:34;;;;;;;4.35;3.95;;;;;;;-144.22;100.00;60274.75;6131783;29;20238;-43
2022/09/07 10:45:46;;;;;;;4.68;4.28;;;;;;;28.72;42.99;97702.25;6131456;29;20226;-45
2022/09/07 10:49:00;;;;;;;6.93;4.80;;;;;;;-144.22;100.00;60274.75;6115673;29;20226;-47
2022/09/07 10:52:14;;;;;;;4.40;4.00;;;;;;;29.65;100.00;60274.75;6132762;29;20264;-44
2022/09/07 10:55:32;;;;;;;4.22;3.83;;;;;;;-144.22;100.00;60274.75;6132274;29;20254;-44
2022/09/07 10:58:40;;;;;;;4.45;4.05;;;;;;;30.34;100.00;60274.75;6133395;29;20251;-44
2022/09/07 11:02:39;;;;;;;4.35;3.78;;;;;;;-144.22;100.00;60274.75;6114835;29;20250;-44
2022/09/07 11:05:41;;;;;;;5.93;3.83;;;;;;;30.98;100.00;60274.75;6103868;29;20245;-43
2022/09/07 11:09:21;;;;;;;3.95;3.55;;;;;;;-144.22;100.00;60274.75;6106660;29;20267;-44
2022/09/07 11:12:34;;;;;;;4.57;4.18;;;;;;;-144.22;100.00;60274.75;6107268;29;20685;-44
2022/09/07 11:15:48;;;;;;;5.05;3.88;;;;;;;-144.22;100.00;60274.75;6091005;29;20239;-45
2022/09/07 11:19:00;;;;;;;4.88;4.13;;;;;;;31.63;100.00;82026.31;6107965;29;20309;-44
2022/09/07 11:22:38;;;;;;;3.83;3.53;;;;;;;104.84;100.00;60274.75;6107883;29;20250;-45
2022/09/07 11:25:57;;;;;;;4.60;4.20;;;;;;;-144.22;100.00;60274.75;6108129;29;20258;-44
2022/09/07 11:29:19;;;;;;;4.93;3.85;;;;;;;-144.22;100.00;60274.75;6108229;29;20314;-44
2022/09/07 11:32:41;;;;;;;4.40;4.00;;;;;;;32.13;100.00;60274.75;6107755;29;20397;-45
2022/09/07 11:35:57;;;;;;;4.03;3.55;;;;;;;-144.22;100.00;60274.75;6108335;29;20238;-43
2022/09/07 11:39:06;;;;;;;7.85;4.10;;;;;;;-144.22;100.00;60274.75;6108117;29;20223;-46
2022/09/07 11:42:18;;;;;;;4.80;3.72;;;;;;;30.02;100.00;60274.75;6108394;29;20713;-44
2022/09/07 11:45:50;;;;;;;5.05;4.07;;;;;;;-144.22;100.00;60274.75;6107414;29;20234;-44
2022/09/07 11:48:55;;;;;;;4.15;3.72;;;;;;;30.71;100.00;60274.75;6107995;29;20240;-43
2022/09/07 11:52:07;;;;;;;5.20;4.13;;;;;;;-144.22;100.00;60274.75;6107794;29;20608;-45
2022/09/07 11:55:19;;;;;;;4.32;3.50;;;;;;;-144.22;100.00;60274.75;6085026;29;20240;-44
2022/09/07 11:58:41;;;;;;;4.38;3.97;;;;;;;31.40;100.00;60274.75;6108015;29;20271;-44
2022/09/07 12:01:55;;;;;;;4.18;3.50;;;;;;;-144.22;100.00;60274.75;6107308;29;20238;-45
2022/09/07 12:05:16;;;;;;;3.83;3.53;;;;;;;-144.22;100.00;60274.75;6119428;28;20334;-44
2022/09/07 12:09:16;;;;;;;5.40;4.55;;;;;;;31.69;100.00;92243.59;6132826;29;20241;-45
2022/09/07 12:12:33;;;;;;;4.45;3.53;;;;;;;-144.22;100.00;60274.75;6033952;29;20222;-45
2022/09/07 12:15:46;;;;;;;4.25;3.88;;;;;;;-144.22;100.00;60274.75;6130346;29;20281;-44
2022/09/07 12:19:06;;;;;;;4.45;4.00;;;;;;;-144.22;100.00;60274.75;6131191;29;20274;-45
2022/09/07 12:22:20;;;;;;;6.30;4.40;;;;;;;-144.22;100.00;60274.75;6133458;28;20234;-44
2022/09/07 12:25:22;;;;;;;18.83;4.15;;;;;;;-144.22;100.00;60274.75;6136170;29;20724;-44
2022/09/07 12:28:24;;;;;;;4.05;3.75;;;;;;;-144.22;100.00;60274.75;6134290;29;20274;-44
2022/09/07 12:32:02;;;;;;;3.83;3.50;;;;;;;34.72;100.00;60274.75;6135651;29;20238;-46
2022/09/07 12:35:27;;;;;;;4.28;3.97;;;;;;;-144.22;100.00;60274.75;6066829;29;20233;-44
2022/09/07 12:38:29;;;;;;;4.57;3.67;;;;;;;-144.22;100.00;60274.75;6060965;29;20236;-45
2022/09/07 12:41:43;;;;;;;4.38;3.72;;;;;;;-144.22;100.00;60274.75;6061711;29;20772;-45
2022/09/07 12:45:26;;;;;;;7.25;3.92;;;;;;;-144.22;100.00;60274.75;6061367;29;20321;-45
2022/09/07 12:48:38;;;;;;;5.05;3.53;;;;;;;-144.22;100.00;60274.75;6061470;29;20232;-45
2022/09/07 12:51:40;;;;;;;4.63;3.55;;;;;;;31.60;100.00;60274.75;6060651;29;20233;-44
2022/09/07 12:55:08;;;;;;;4.70;3.60;;;;;;;-144.22;100.00;60274.75;6061547;29;20275;-44
2022/09/07 12:58:34;;;;;;;6.00;3.92;;;;;;;-144.22;100.00;60274.75;6061157;29;20251;-46
2022/09/07 13:02:11;;;;;;;3.55;3.25;;;;;;;32.13;100.00;60274.75;6060981;29;20281;-45
2022/09/07 13:05:17;;;;;;;4.68;3.58;;;;;;;-144.22;100.00;60274.75;6082026;29;20247;-45
2022/09/07 13:08:38;;;;;;;4.95;3.33;;;;;;;-144.22;100.00;60274.75;6101416;28;20694;-45
2022/09/07 13:11:40;;;;;;;3.60;3.40;;;;;;;30.64;100.00;60274.75;6134678;28;20235;-45
2022/09/07 13:14:51;;;;;;;3.40;3.10;;;;;;;-144.22;100.00;60274.75;6135367;28;20728;-45
2022/09/07 13:17:54;;;;;;;3.50;3.20;;;;;;;31.73;100.00;60274.75;6134396;28;20234;-44
2022/09/07 13:21:05;;;;;;;3.90;3.50;;;;;;;-144.22;100.00;60274.75;6135090;28;20444;-46
2022/09/07 13:24:17;;;;;;;4.28;3.78;;;;;;;-144.22;100.00;60274.75;6134706;28;20223;-45
2022/09/07 13:27:49;;;;;;;5.35;3.88;;;;;;;-144.22;100.00;60274.75;6133838;28;20238;-44
2022/09/07 13:31:04;;;;;;;3.55;3.25;;;;;;;-144.22;100.00;60274.75;6135898;28;20235;-48
2022/09/07 13:34:43;;;;;;;4.60;3.22;;;;;;;33.89;100.00;60274.75;6133578;28;20621;-45
2022/09/07 13:37:53;;;;;;;3.05;2.85;;;;;;;-144.22;100.00;60274.75;6106513;29;20274;-45
2022/09/07 13:41:04;;;;;;;4.03;3.72;;;;;;;33.42;100.00;60274.75;6107215;29;20240;-44
2022/09/07 13:44:18;;;;;;;3.95;3.55;;;;;;;-144.22;100.00;60274.75;6106518;29;20616;-48
2022/09/07 13:47:54;;;;;;;3.80;3.50;;;;;;;-144.22;100.00;60274.75;6107211;29;20235;-44
2022/09/07 13:51:13;;;;;;;4.95;3.60;;;;;;;104.84;100.00;60274.75;6106181;29;20555;-45
2022/09/07 13:54:37;;;;;;;3.50;3.20;;;;;;;37.32;100.00;60274.75;6106680;29;20231;-44
2022/09/07 13:58:07;;;;;;;5.63;3.40;;;;;;;-144.22;100.00;60274.75;6106350;29;20739;-45
2022/09/07 14:01:17;;;;;;;3.25;3.03;;;;;;;-144.22;100.00;60274.75;6105929;29;20742;-45
2022/09/07 14:04:38;;;;;;;4.95;4.00;;;;;;;30.48;100.00;60274.75;6113244;28;20800;-44
2022/09/07 14:07:47;;;;;;;5.55;3.55;;;;;;;-144.22;100.00;60274.75;6120675;28;20263;-46
2022/09/07 14:10:49;;;;;;;4.32;3.22;;;;;;;-144.22;100.00;60274.75;6105748;29;20247;-45
2022/09/07 14:14:26;;;;;;;4.75;2.78;;;;;;;31.36;100.00;60274.75;6126259;28;20233;-45
2022/09/07 14:17:30;;;;;;;3.58;3.17;;;;;;;-144.22;100.00;60274.75;6134830;28;20231;-45
2022/09/07 14:20:39;;;;;;;3.28;2.92;;;;;;;-144.22;100.00;60274.75;6132916;28;20238;-45
2022/09/07 14:23:41;;;;;;;3.53;3.28;;;;;;;-144.22;100.00;60274.75;6133262;28;20235;-45
2022/09/07 14:26:46;;;;;;;3.20;2.95;;;;;;;30.45;100.00;60274.75;6133247;28;20325;-45
2022/09/07 14:29:48;;;;;;;4.28;3.10;;;;;;;29.58;37.87;97570.78;6131401;28;20317;-45
2022/09/07 14:32:56;;;;;;;3.78;3.47;;;;;;;29.98;100.00;60274.75;6132688;28;20605;-44